Time;durP1;ratioP1;P1;durP2;ratioP2;P2;SDS_P1;SDS_P2;PMS_P1;PMS_P2;Temp;Humidity;BMP_temperature;BMP_pressure;BME280_temperature;BME280_humidity;BME280_pressure;Samples;Min_cycle;Max_cycle;Signal;HPM_P1;HPM_P2
2021/10/20 00:00:39;;;;;;;15.10;8.23;;;17.30;82.10;;;;;;5072644;28;20086;-85
2021/10/20 00:03:05;;;;;;;16.05;9.43;;;17.30;82.20;;;;;;5077503;28;20043;-85
2021/10/20 00:05:31;;;;;;;17.13;9.88;;;17.30;82.00;;;;;;5076538;28;20577;-85
2021/10/20 00:08:03;;;;;;;14.90;8.63;;;17.30;81.70;;;;;;5075269;28;20029;-84
2021/10/20 00:10:28;;;;;;;12.32;8.23;;;17.30;81.70;;;;;;5056291;28;20029;-85
2021/10/20 00:12:55;;;;;;;11.27;7.30;;;17.40;81.40;;;;;;5054585;28;20035;-84
2021/10/20 00:15:22;;;;;;;12.02;7.05;;;17.40;81.20;;;;;;5057381;28;20025;-84
2021/10/20 00:17:48;;;;;;;12.80;8.30;;;17.30;81.10;;;;;;5065525;28;20502;-85
2021/10/20 00:20:18;;;;;;;15.20;7.70;;;17.40;81.10;;;;;;5076053;28;20051;-85
2021/10/20 00:22:44;;;;;;;12.27;7.32;;;17.40;81.00;;;;;;5075760;28;20099;-87
2021/10/20 00:25:11;;;;;;;12.38;7.20;;;17.40;80.90;;;;;;5077331;28;20032;-84
2021/10/20 00:27:38;;;;;;;14.32;6.68;;;17.30;81.00;;;;;;5075014;28;20038;-83
2021/10/20 00:30:04;;;;;;;15.38;8.30;;;17.40;80.70;;;;;;5075688;28;20020;-84
2021/10/20 00:32:30;;;;;;;10.80;7.22;;;17.40;80.70;;;;;;5076945;28;20398;-84
2021/10/20 00:34:56;;;;;;;10.30;6.75;;;17.40;80.60;;;;;;5074818;28;20043;-84
2021/10/20 00:37:22;;;;;;;15.10;7.32;;;17.40;80.50;;;;;;5076920;28;20025;-84
2021/10/20 00:39:48;;;;;;;12.75;7.22;;;17.50;80.40;;;;;;5074832;28;20041;-83
2021/10/20 00:42:13;;;;;;;11.65;7.20;;;17.40;80.20;;;;;;5076647;28;20379;-84
2021/10/20 00:44:51;;;;;;;8.68;5.05;;;17.50;80.10;;;;;;5091023;28;20025;-83
2021/10/20 00:47:38;;;;;;;17.05;7.88;;;17.40;80.50;;;;;;5075472;28;20028;-84
2021/10/20 00:50:06;;;;;;;10.18;6.85;;;17.40;80.50;;;;;;5074916;28;20059;-83
2021/10/20 00:52:32;;;;;;;11.15;6.90;;;17.50;80.30;;;;;;5075396;28;20028;-84
2021/10/20 00:54:59;;;;;;;9.70;7.18;;;17.50;80.30;;;;;;5076714;28;20032;-83
2021/10/20 00:57:27;;;;;;;11.70;6.38;;;17.50;80.50;;;;;;5073417;28;20036;-83
2021/10/20 00:59:53;;;;;;;9.95;6.32;;;17.50;80.50;;;;;;5076186;28;20075;-84
2021/10/20 01:02:20;;;;;;;10.82;7.05;;;17.50;80.30;;;;;;5074977;28;20174;-85
2021/10/20 01:04:49;;;;;;;9.65;6.43;;;17.50;80.20;;;;;;5074305;28;20116;-84
2021/10/20 01:07:16;;;;;;;8.30;5.57;;;17.50;80.70;;;;;;5075314;28;20056;-83
2021/10/20 01:09:42;;;;;;;10.95;6.70;;;17.50;80.50;;;;;;5079358;28;20108;-84
2021/10/20 01:12:08;;;;;;;12.02;7.03;;;17.50;80.60;;;;;;5079587;28;20048;-84
2021/10/20 01:14:34;;;;;;;15.57;7.70;;;17.50;80.70;;;;;;5079397;28;20110;-83
2021/10/20 01:17:00;;;;;;;13.82;7.15;;;17.50;80.90;;;;;;5079900;28;20020;-83
2021/10/20 01:19:26;;;;;;;9.90;6.93;;;17.50;80.90;;;;;;5078525;28;20064;-84
2021/10/20 01:21:55;;;;;;;12.02;7.00;;;17.50;80.90;;;;;;5080056;28;20119;-84
2021/10/20 01:24:21;;;;;;;9.02;6.15;;;17.50;81.00;;;;;;5079128;28;20024;-84
2021/10/20 01:26:53;;;;;;;14.15;7.70;;;17.60;81.10;;;;;;5071934;28;20104;-82
2021/10/20 01:29:20;;;;;;;9.45;6.97;;;17.50;81.10;;;;;;5068065;28;20028;-84
2021/10/20 01:31:50;;;;;;;12.65;6.93;;;17.50;81.20;;;;;;5057508;28;20032;-84
2021/10/20 01:34:17;;;;;;;13.55;7.60;;;17.60;81.30;;;;;;5072530;28;20032;-84
2021/10/20 01:36:43;;;;;;;11.88;7.18;;;17.50;81.60;;;;;;5077638;28;20297;-84
2021/10/20 01:39:11;;;;;;;10.43;7.45;;;17.40;81.60;;;;;;5080406;28;20028;-84
2021/10/20 01:41:38;;;;;;;13.88;7.00;;;17.50;81.60;;;;;;5076688;28;20056;-85
2021/10/20 01:44:04;;;;;;;9.93;6.93;;;17.50;81.80;;;;;;5078910;28;20035;-85
2021/10/20 01:46:30;;;;;;;12.23;6.10;;;17.60;81.70;;;;;;5080434;28;20012;-84
2021/10/20 01:48:56;;;;;;;12.85;7.28;;;17.60;81.60;;;;;;5077687;28;20078;-83
2021/10/20 01:51:22;;;;;;;13.23;6.95;;;17.70;81.50;;;;;;5080019;28;20033;-84
2021/10/20 01:53:49;;;;;;;10.02;7.20;;;17.70;81.40;;;;;;5078614;28;20025;-85
2021/10/20 01:56:17;;;;;;;16.05;7.30;;;17.60;81.60;;;;;;5077404;28;20494;-84
2021/10/20 01:58:45;;;;;;;13.27;7.32;;;17.60;81.80;;;;;;5058535;28;20072;-85
2021/10/20 02:01:10;;;;;;;12.55;6.90;;;17.60;81.80;;;;;;5068033;28;20047;-84
2021/10/20 02:03:38;;;;;;;11.32;6.35;;;17.70;81.70;;;;;;5078809;28;20021;-83
2021/10/20 02:06:06;;;;;;;12.63;7.40;;;17.70;81.70;;;;;;5077106;28;20023;-84
2021/10/20 02:08:32;;;;;;;14.60;6.72;;;17.70;81.70;;;;;;5078354;28;20513;-85
2021/10/20 02:10:58;;;;;;;13.57;6.57;;;17.80;81.40;;;;;;5078742;28;20029;-84
2021/10/20 02:13:24;;;;;;;11.20;7.00;;;17.80;81.80;;;;;;5080535;28;20070;-85
2021/10/20 02:15:50;;;;;;;16.05;7.78;;;17.80;82.10;;;;;;5079019;28;20051;-86
2021/10/20 02:18:16;;;;;;;14.43;7.93;;;17.80;82.90;;;;;;5078168;28;20036;-85
2021/10/20 02:20:42;;;;;;;11.45;7.43;;;17.80;82.90;;;;;;5080315;28;20021;-86
2021/10/20 02:23:07;;;;;;;14.93;6.80;;;17.80;82.90;;;;;;5078281;28;20078;-86
2021/10/20 02:25:33;;;;;;;11.93;7.72;;;17.80;83.10;;;;;;5079206;28;20513;-87
2021/10/20 02:27:59;;;;;;;14.63;8.25;;;17.80;83.20;;;;;;5076757;28;20074;-84
2021/10/20 02:30:27;;;;;;;14.23;8.10;;;17.80;83.50;;;;;;5078583;28;20016;-85
2021/10/20 02:32:53;;;;;;;15.30;7.22;;;17.80;83.90;;;;;;5093560;28;20033;-85
2021/10/20 02:35:19;;;;;;;14.25;7.97;;;17.80;83.80;;;;;;5077006;28;20029;-85
2021/10/20 02:37:45;;;;;;;14.63;7.68;;;17.80;84.30;;;;;;5079566;28;20107;-85
2021/10/20 02:40:12;;;;;;;13.75;7.43;;;17.80;84.30;;;;;;5076525;28;20052;-84
2021/10/20 02:42:38;;;;;;;13.77;7.35;;;17.70;84.70;;;;;;5079163;28;20036;-84
2021/10/20 02:45:06;;;;;;;11.40;6.88;;;17.70;84.90;;;;;;5076795;28;20032;-85
2021/10/20 02:47:32;;;;;;;17.27;8.15;;;17.70;85.40;;;;;;5078561;28;20040;-85
2021/10/20 02:49:58;;;;;;;18.10;7.68;;;17.70;85.90;;;;;;5078040;28;20775;-86
2021/10/20 02:52:23;;;;;;;12.93;7.53;;;17.70;85.70;;;;;;5076742;28;20116;-85
2021/10/20 02:54:49;;;;;;;15.07;7.85;;;17.70;86.00;;;;;;5079283;28;20024;-86
2021/10/20 02:57:15;;;;;;;12.68;7.35;;;17.70;86.10;;;;;;5076729;28;20028;-85
2021/10/20 02:59:41;;;;;;;17.92;8.43;;;17.80;86.20;;;;;;5079185;28;20028;-86
2021/10/20 03:02:06;;;;;;;14.20;8.95;;;17.70;86.20;;;;;;5076905;28;20056;-86
2021/10/20 03:04:32;;;;;;;16.00;8.52;;;17.70;86.60;;;;;;5076466;28;20042;-86
2021/10/20 03:06:58;;;;;;;18.08;9.07;;;17.60;86.60;;;;;;5077383;28;20085;-85
2021/10/20 03:09:23;;;;;;;17.30;9.35;;;17.70;86.40;;;;;;5076023;28;20071;-85
2021/10/20 03:11:49;;;;;;;14.15;8.25;;;17.60;86.50;;;;;;5077677;28;20036;-84
2021/10/20 03:14:15;;;;;;;19.98;10.07;;;17.60;86.90;;;;;;5076926;28;20030;-86
2021/10/20 03:16:41;;;;;;;15.27;9.52;;;17.60;87.10;;;;;;5078939;28;20032;-86
2021/10/20 03:19:07;;;;;;;17.42;8.82;;;17.60;87.00;;;;;;5076084;28;20688;-85
2021/10/20 03:21:35;;;;;;;22.30;9.52;;;17.70;86.80;;;;;;5078326;28;20066;-86
2021/10/20 03:24:01;;;;;;;22.35;10.50;;;17.70;86.70;;;;;;5077217;28;20659;-85
2021/10/20 03:26:27;;;;;;;15.27;9.65;;;17.60;87.00;;;;;;5076882;28;20024;-86
2021/10/20 03:28:52;;;;;;;22.80;10.27;;;17.60;86.80;;;;;;5077754;28;20025;-85
2021/10/20 03:31:18;;;;;;;24.65;10.90;;;17.60;87.00;;;;;;5075687;28;20394;-86
2021/10/20 03:33:44;;;;;;;23.67;10.77;;;17.60;87.20;;;;;;5078487;28;20150;-87
2021/10/20 03:36:10;;;;;;;20.85;9.95;;;17.60;86.90;;;;;;5074802;28;20033;-85
2021/10/20 03:38:41;;;;;;;18.13;10.48;;;17.60;87.10;;;;;;5077840;28;20021;-85
2021/10/20 03:41:06;;;;;;;20.63;10.65;;;17.50;87.20;;;;;;5074759;28;20172;-86
2021/10/20 03:43:32;;;;;;;25.42;10.98;;;17.50;87.20;;;;;;5076658;28;20247;-85
2021/10/20 03:45:58;;;;;;;23.38;10.95;;;17.50;87.20;;;;;;5078019;28;20029;-85
2021/10/20 03:48:23;;;;;;;20.77;9.90;;;17.40;87.10;;;;;;5075720;28;20514;-85
2021/10/20 03:50:49;;;;;;;24.63;11.38;;;17.40;87.40;;;;;;5077855;28;20024;-85
2021/10/20 03:53:15;;;;;;;28.85;11.25;;;17.40;87.30;;;;;;5075642;28;20054;-86
2021/10/20 03:55:58;;;;;;;20.25;10.65;;;17.50;87.00;;;;;;5077738;28;20029;-85
2021/10/20 03:58:24;;;;;;;18.33;10.80;;;17.50;86.80;;;;;;5090936;28;20028;-85
2021/10/20 04:00:59;;;;;;;25.10;11.50;;;17.50;87.10;;;;;;5074623;28;20043;-86
2021/10/20 04:03:25;;;;;;;19.60;10.65;;;17.40;87.50;;;;;;5076205;28;20068;-85
2021/10/20 04:05:51;;;;;;;21.80;12.15;;;17.40;87.30;;;;;;5075174;28;20024;-85
2021/10/20 04:08:16;;;;;;;18.38;10.32;;;17.40;87.30;;;;;;5076179;28;20056;-86
2021/10/20 04:10:42;;;;;;;22.00;11.40;;;17.40;87.60;;;;;;5074706;28;20420;-85
2021/10/20 04:13:08;;;;;;;20.85;11.68;;;17.50;87.50;;;;;;5077652;28;20086;-85
2021/10/20 04:15:34;;;;;;;20.10;11.15;;;17.50;87.20;;;;;;5076056;28;20082;-86
2021/10/20 04:18:12;;;;;;;25.80;11.75;;;17.60;87.30;;;;;;5091547;28;20033;-85
2021/10/20 04:20:38;;;;;;;23.80;10.63;;;17.70;87.00;;;;;;5075897;28;20032;-85
2021/10/20 04:23:03;;;;;;;23.52;10.48;;;17.70;86.90;;;;;;5073536;28;20395;-86
2021/10/20 04:25:29;;;;;;;19.73;11.25;;;17.70;86.90;;;;;;5077297;28;20023;-86
2021/10/20 04:27:54;;;;;;;26.10;11.38;;;17.70;87.20;;;;;;5074550;28;20030;-86
2021/10/20 04:30:21;;;;;;;19.27;10.77;;;17.70;87.00;;;;;;5075242;28;20517;-85
2021/10/20 04:32:47;;;;;;;23.98;11.68;;;17.80;86.90;;;;;;5074151;28;20103;-85
2021/10/20 04:35:29;;;;;;;;;;;;;;;;;;;;;
2021/10/20 04:37:55;;;;;;;19.75;10.27;;;17.70;86.80;;;;;;5074100;28;20021;-86
2021/10/20 04:40:20;;;;;;;17.55;10.00;;;17.70;87.00;;;;;;5063141;28;20051;-85
2021/10/20 04:42:46;;;;;;;23.85;10.98;;;17.80;86.70;;;;;;5060694;28;20050;-83
2021/10/20 04:45:12;;;;;;;26.35;12.20;;;17.70;86.70;;;;;;5075820;28;20021;-88
2021/10/20 05:16:58;;;;;;;24.40;10.48;;;16.00;92.40;;;;;;5070847;28;20432;-82
2021/10/20 05:19:23;;;;;;;25.98;10.52;;;16.30;91.80;;;;;;5060618;28;20033;-83
2021/10/20 05:21:49;;;;;;;22.02;9.98;;;16.70;91.10;;;;;;5066176;28;20161;-83
2021/10/20 05:24:15;;;;;;;23.27;9.70;;;17.00;90.40;;;;;;5057767;28;20103;-81
2021/10/20 05:26:41;;;;;;;25.40;10.77;;;17.20;89.80;;;;;;5071992;28;20101;-81
2021/10/20 05:29:07;;;;;;;21.50;11.23;;;17.30;89.10;;;;;;5072389;28;20387;-78
2021/10/20 05:31:33;;;;;;;16.33;8.63;;;17.50;88.50;;;;;;5035918;28;20048;-79
2021/10/20 05:33:59;;;;;;;19.27;8.40;;;17.60;88.00;;;;;;5039484;28;20957;-80
2021/10/20 05:36:24;;;;;;;17.92;8.35;;;17.70;87.30;;;;;;5043836;28;20025;-80
2021/10/20 05:38:50;;;;;;;22.65;9.55;;;17.70;87.00;;;;;;5050977;28;20078;-81
2021/10/20 05:41:16;;;;;;;21.40;9.20;;;17.70;87.00;;;;;;5044060;28;20128;-81
2021/10/20 05:43:42;;;;;;;17.90;8.65;;;17.70;86.90;;;;;;5051502;28;20021;-81
2021/10/20 05:46:08;;;;;;;21.88;8.73;;;17.70;87.00;;;;;;5048561;28;20087;-81
2021/10/20 05:48:34;;;;;;;15.98;7.60;;;17.80;86.90;;;;;;5053326;28;20021;-82
2021/10/20 05:51:00;;;;;;;16.60;7.68;;;17.70;87.00;;;;;;5056491;28;20064;-83
2021/10/20 05:53:25;;;;;;;16.52;6.85;;;17.80;87.20;;;;;;5051194;28;20120;-83
2021/10/20 05:55:51;;;;;;;20.05;7.35;;;17.80;87.10;;;;;;5050531;28;20039;-84
2021/10/20 05:58:17;;;;;;;22.10;7.63;;;17.80;86.90;;;;;;5051811;28;20509;-84
2021/10/20 06:00:42;;;;;;;12.23;6.85;;;17.80;86.90;;;;;;5050692;28;20369;-83
2021/10/20 06:03:08;;;;;;;16.75;7.32;;;17.80;86.80;;;;;;5050337;28;20049;-83
2021/10/20 06:05:36;;;;;;;12.68;6.65;;;17.90;86.80;;;;;;5034373;28;20037;-83
2021/10/20 06:08:01;;;;;;;16.38;6.57;;;17.90;87.00;;;;;;5031732;28;20014;-84
2021/10/20 06:10:27;;;;;;;21.25;7.05;;;17.90;87.00;;;;;;5044285;28;20068;-84
2021/10/20 06:12:53;;;;;;;16.42;7.55;;;17.90;87.00;;;;;;5045597;28;20446;-84
2021/10/20 06:15:22;;;;;;;16.88;6.85;;;18.00;87.10;;;;;;5050704;28;20060;-84
2021/10/20 06:17:51;;;;;;;16.20;6.87;;;18.00;87.00;;;;;;5043737;28;20119;-84
2021/10/20 06:20:18;;;;;;;17.02;6.40;;;18.00;87.00;;;;;;5035278;28;20036;-84
2021/10/20 06:22:44;;;;;;;16.63;6.35;;;18.00;87.00;;;;;;5050306;28;20033;-85
2021/10/20 06:25:12;;;;;;;15.68;6.70;;;17.90;87.20;;;;;;5060314;28;20032;-82
2021/10/20 06:27:39;;;;;;;9.82;5.45;;;18.00;87.10;;;;;;5060727;28;20048;-84
2021/10/20 06:30:05;;;;;;;19.67;6.07;;;18.00;87.10;;;;;;5058090;28;20096;-84
2021/10/20 06:32:31;;;;;;;15.05;5.30;;;18.00;87.20;;;;;;5058003;28;20017;-83
2021/10/20 06:35:00;;;;;;;13.63;5.10;;;18.00;87.10;;;;;;5019019;28;20033;-83
2021/10/20 06:37:27;;;;;;;18.25;5.35;;;17.90;87.30;;;;;;5018067;28;20034;-85
2021/10/20 06:39:53;;;;;;;8.93;3.65;;;17.90;87.20;;;;;;5018321;28;20029;-84
2021/10/20 06:42:19;;;;;;;8.40;4.00;;;18.00;87.30;;;;;;5018093;28;20037;-86
2021/10/20 06:44:45;;;;;;;9.10;3.40;;;18.00;87.10;;;;;;5035462;28;20045;-84
2021/10/20 06:47:10;;;;;;;13.88;4.22;;;18.00;87.00;;;;;;5036357;28;20095;-85
2021/10/20 06:49:36;;;;;;;12.00;3.50;;;18.00;86.90;;;;;;5037832;28;20071;-84
2021/10/20 06:52:04;;;;;;;17.23;4.60;;;18.00;86.90;;;;;;5036845;28;20104;-84
2021/10/20 06:54:30;;;;;;;10.02;3.67;;;18.00;86.80;;;;;;5026299;28;20053;-84
2021/10/20 06:56:56;;;;;;;15.05;3.40;;;18.10;86.60;;;;;;5017378;28;20033;-84
2021/10/20 06:59:21;;;;;;;11.55;3.92;;;18.10;86.50;;;;;;5049260;28;20033;-85
2021/10/20 07:01:47;;;;;;;16.00;3.80;;;18.10;86.40;;;;;;5017560;28;20044;-84
2021/10/20 07:04:13;;;;;;;15.93;4.30;;;18.10;86.40;;;;;;5018192;28;20108;-84
2021/10/20 07:06:39;;;;;;;13.52;3.95;;;18.20;86.20;;;;;;5049431;28;20030;-84
2021/10/20 07:09:06;;;;;;;11.70;2.83;;;18.10;85.80;;;;;;5032885;28;20080;-84
2021/10/20 07:11:33;;;;;;;11.77;2.83;;;18.10;86.00;;;;;;5018011;28;20030;-84
2021/10/20 07:13:59;;;;;;;12.68;3.13;;;18.00;85.80;;;;;;5029431;28;20116;-85
2021/10/20 07:16:24;;;;;;;14.40;3.03;;;18.10;86.00;;;;;;5037212;28;20079;-85
2021/10/20 07:18:50;;;;;;;8.25;2.85;;;18.20;85.80;;;;;;5036218;28;20029;-84
2021/10/20 07:21:17;;;;;;;11.73;2.85;;;18.20;85.40;;;;;;5018517;28;20057;-84
2021/10/20 07:23:43;;;;;;;8.05;3.60;;;18.20;85.30;;;;;;5017282;28;20152;-84
2021/10/20 07:26:09;;;;;;;7.82;2.63;;;18.30;85.30;;;;;;5039350;28;20036;-86
2021/10/20 07:28:35;;;;;;;15.35;3.58;;;18.30;85.00;;;;;;5035974;28;20022;-83
2021/10/20 07:31:00;;;;;;;10.30;2.92;;;18.30;85.00;;;;;;5037018;28;20032;-84
2021/10/20 07:33:26;;;;;;;17.42;3.08;;;18.30;85.00;;;;;;5035690;28;20017;-84
2021/10/20 07:35:52;;;;;;;15.85;3.72;;;18.30;84.80;;;;;;5022831;28;20503;-84
2021/10/20 07:38:17;;;;;;;7.95;2.38;;;18.40;84.70;;;;;;5016171;28;20361;-84
2021/10/20 07:40:43;;;;;;;10.57;2.92;;;18.50;84.60;;;;;;5016702;28;20030;-84
2021/10/20 07:43:09;;;;;;;11.40;2.83;;;18.40;84.50;;;;;;5021022;28;20044;-87
2021/10/20 07:45:34;;;;;;;10.35;3.60;;;18.50;84.40;;;;;;5036757;28;20408;-84
2021/10/20 07:48:00;;;;;;;10.75;3.28;;;18.60;84.40;;;;;;5033685;28;20061;-86
2021/10/20 07:50:26;;;;;;;8.82;2.95;;;18.60;84.30;;;;;;5017148;28;20025;-85
2021/10/20 07:52:52;;;;;;;11.65;2.42;;;18.70;84.00;;;;;;5016681;28;20022;-84
2021/10/20 07:55:23;;;;;;;12.57;3.00;;;18.80;83.20;;;;;;5016822;28;20026;-85
2021/10/20 07:57:49;;;;;;;13.68;3.20;;;18.90;83.50;;;;;;5016781;28;20018;-84
2021/10/20 08:00:15;;;;;;;15.95;3.00;;;18.90;83.20;;;;;;5015347;28;20026;-85
2021/10/20 08:02:42;;;;;;;13.27;2.92;;;18.80;83.10;;;;;;5015207;28;20033;-86
2021/10/20 08:05:14;;;;;;;11.50;2.97;;;18.80;83.10;;;;;;5015061;28;20038;-88
2021/10/20 08:07:46;;;;;;;7.35;2.10;;;18.80;83.20;;;;;;5016579;28;20444;-85
2021/10/20 08:10:21;;;;;;;12.13;2.95;;;18.70;83.20;;;;;;5016601;28;20082;-85
2021/10/20 08:12:47;;;;;;;14.77;2.85;;;18.70;83.20;;;;;;5015237;28;20128;-85
2021/10/20 08:15:15;;;;;;;14.45;3.42;;;18.70;83.00;;;;;;5048255;28;20125;-85
2021/10/20 08:17:42;;;;;;;13.82;3.22;;;18.70;82.70;;;;;;5016412;28;20484;-85
2021/10/20 08:20:10;;;;;;;12.93;3.67;;;18.80;82.60;;;;;;5016341;28;20069;-86
2021/10/20 08:22:38;;;;;;;12.95;2.75;;;18.70;82.80;;;;;;5016237;28;20018;-85
2021/10/20 08:25:06;;;;;;;14.35;3.10;;;18.70;82.70;;;;;;5037792;28;20029;-85
2021/10/20 08:27:32;;;;;;;14.50;3.60;;;18.70;82.80;;;;;;5054908;28;20059;-84
2021/10/20 08:29:58;;;;;;;7.70;3.25;;;18.60;82.60;;;;;;5054413;28;20034;-85
2021/10/20 08:32:24;;;;;;;8.30;2.72;;;18.60;82.40;;;;;;5030253;28;20026;-86
2021/10/20 08:34:50;;;;;;;10.85;2.78;;;18.50;82.20;;;;;;5014632;28;20030;-85
2021/10/20 08:37:17;;;;;;;11.57;3.08;;;18.60;82.40;;;;;;5016118;28;20029;-86
2021/10/20 08:39:43;;;;;;;9.35;2.22;;;18.60;82.10;;;;;;5014398;28;20033;-86
2021/10/20 08:42:10;;;;;;;18.10;3.67;;;18.70;81.70;;;;;;5030989;28;20018;-84
2021/10/20 08:44:36;;;;;;;11.60;2.80;;;18.90;81.50;;;;;;5033570;28;20057;-86
2021/10/20 08:47:03;;;;;;;11.88;3.05;;;19.10;80.60;;;;;;5034194;28;20032;-84
2021/10/20 08:49:29;;;;;;;9.50;2.33;;;19.20;80.40;;;;;;5034137;28;20030;-85
2021/10/20 08:51:55;;;;;;;10.13;2.75;;;19.30;79.20;;;;;;5035876;28;20056;-84
2021/10/20 08:54:21;;;;;;;10.10;2.60;;;19.70;78.50;;;;;;5035361;28;20038;-86
2021/10/20 08:56:47;;;;;;;15.02;2.72;;;19.80;77.90;;;;;;5035535;28;20440;-85
2021/10/20 08:59:14;;;;;;;10.52;2.20;;;20.00;78.00;;;;;;5021112;28;20057;-86
2021/10/20 09:01:41;;;;;;;10.65;2.50;;;19.70;77.70;;;;;;5014477;28;20018;-85
2021/10/20 09:04:08;;;;;;;11.65;2.83;;;19.70;78.20;;;;;;5015531;28;20018;-86
2021/10/20 09:06:34;;;;;;;12.07;2.80;;;19.60;78.00;;;;;;5047300;28;20029;-86
2021/10/20 09:09:08;;;;;;;9.30;2.50;;;19.50;78.00;;;;;;5015572;28;20037;-87
2021/10/20 09:11:34;;;;;;;12.77;2.55;;;19.50;78.50;;;;;;5015600;28;20022;-86
2021/10/20 09:14:03;;;;;;;12.30;3.40;;;19.50;78.20;;;;;;5047301;28;20033;-87
2021/10/20 09:16:29;;;;;;;10.20;2.75;;;19.40;78.50;;;;;;5015089;28;20144;-85
2021/10/20 09:19:09;;;;;;;6.18;1.95;;;19.30;78.70;;;;;;5015780;28;20117;-85
2021/10/20 09:21:55;;;;;;;14.55;3.47;;;19.30;78.20;;;;;;5014545;28;20040;-87
2021/10/20 09:24:27;;;;;;;7.50;2.55;;;19.20;78.30;;;;;;5024954;28;20021;-86
2021/10/20 09:26:57;;;;;;;7.30;2.63;;;19.30;78.20;;;;;;5034897;28;20124;-87
2021/10/20 09:29:33;;;;;;;14.52;3.42;;;19.40;77.80;;;;;;5035080;28;20029;-85
2021/10/20 09:31:59;;;;;;;7.28;1.83;;;19.70;78.00;;;;;;5035131;28;20021;-86
2021/10/20 09:34:36;;;;;;;9.68;2.85;;;19.90;76.50;;;;;;5032935;28;20077;-87
2021/10/20 09:37:06;;;;;;;9.80;2.28;;;20.00;75.80;;;;;;5015375;28;20057;-84
2021/10/20 09:39:33;;;;;;;12.60;2.78;;;20.10;75.50;;;;;;5015497;28;20030;-85
2021/10/20 09:42:13;;;;;;;13.13;2.53;;;20.20;74.90;;;;;;5015429;28;20048;-85
2021/10/20 09:44:50;;;;;;;15.00;2.30;;;20.20;74.60;;;;;;5031531;28;20029;-86
2021/10/20 09:47:17;;;;;;;9.80;2.42;;;20.30;73.60;;;;;;5033646;28;20029;-86
2021/10/20 09:49:51;;;;;;;9.50;2.67;;;20.20;73.70;;;;;;5035023;28;20607;-85
2021/10/20 09:52:22;;;;;;;10.73;2.65;;;20.10;73.30;;;;;;5019263;28;20140;-88
2021/10/20 09:54:48;;;;;;;10.07;2.35;;;20.00;74.40;;;;;;5015302;28;20025;-87
2021/10/20 09:57:14;;;;;;;12.40;2.45;;;19.90;74.30;;;;;;5015002;28;20038;-85
2021/10/20 09:59:42;;;;;;;14.90;2.80;;;19.80;74.10;;;;;;5015246;28;20042;-84
2021/10/20 10:02:10;;;;;;;10.95;2.80;;;19.80;73.80;;;;;;5016374;28;20037;-85
2021/10/20 10:04:37;;;;;;;13.05;3.70;;;20.00;73.80;;;;;;5017462;28;20038;-85
2021/10/20 10:07:04;;;;;;;13.32;2.10;;;20.00;73.30;;;;;;5050470;28;20030;-85
2021/10/20 10:09:29;;;;;;;12.23;2.13;;;20.10;72.80;;;;;;5018900;28;20057;-85
2021/10/20 10:12:07;;;;;;;13.23;2.60;;;20.10;73.40;;;;;;5018326;28;20026;-86
2021/10/20 10:14:47;;;;;;;14.73;2.38;;;20.10;73.30;;;;;;5017235;28;20018;-85
2021/10/20 10:17:19;;;;;;;15.68;2.53;;;20.10;72.80;;;;;;5018610;28;20037;-85
2021/10/20 10:19:46;;;;;;;11.02;2.30;;;19.90;73.90;;;;;;5018555;28;20369;-85
2021/10/20 10:22:26;;;;;;;12.93;2.88;;;19.90;74.20;;;;;;5018407;28;20065;-86
2021/10/20 10:24:53;;;;;;;10.95;2.22;;;19.80;73.50;;;;;;5019308;28;20052;-84
2021/10/20 10:27:20;;;;;;;7.65;2.33;;;19.70;74.60;;;;;;5018348;28;20030;-87
2021/10/20 10:30:15;;;;;;;10.45;2.22;;;19.50;75.30;;;;;;5018439;28;20026;-85
2021/10/20 10:32:41;;;;;;;13.10;1.98;;;19.30;77.70;;;;;;5018205;28;20129;-87
2021/10/20 10:35:07;;;;;;;6.90;1.80;;;19.20;77.60;;;;;;5018113;28;20061;-86
2021/10/20 10:37:35;;;;;;;9.88;1.92;;;18.80;79.60;;;;;;5018222;28;20045;-86
2021/10/20 10:40:16;;;;;;;7.47;1.55;;;18.70;79.90;;;;;;5018293;28;20923;-88
2021/10/20 10:42:46;;;;;;;9.60;1.60;;;18.40;80.20;;;;;;5050351;28;20057;-86
2021/10/20 10:45:16;;;;;;;10.23;2.93;;;18.50;79.50;;;;;;5036405;28;20025;-85
2021/10/20 10:48:03;;;;;;;12.48;2.28;;;18.60;80.20;;;;;;5038005;28;20335;-84
2021/10/20 10:50:53;;;;;;;11.02;2.58;;;18.70;80.10;;;;;;5036775;28;20037;-84
2021/10/20 10:53:38;;;;;;;12.98;2.22;;;18.80;80.00;;;;;;5030357;28;20025;-84
2021/10/20 10:56:11;;;;;;;12.23;2.45;;;19.00;79.40;;;;;;5021632;28;20040;-84
2021/10/20 10:59:08;;;;;;;13.68;4.07;;;19.00;79.60;;;;;;5030293;28;20495;-85
2021/10/20 11:01:48;;;;;;;14.93;3.05;;;19.00;79.70;;;;;;5037497;28;20038;-87
2021/10/20 11:04:24;;;;;;;7.72;2.33;;;19.00;79.10;;;;;;5036665;28;20036;-81
2021/10/20 11:06:55;;;;;;;15.35;2.65;;;19.10;78.90;;;;;;5030473;28;20127;-88
2021/10/20 11:09:26;;;;;;;15.75;3.10;;;19.10;77.80;;;;;;5029639;28;20022;-87
2021/10/20 11:11:55;;;;;;;9.18;2.30;;;19.20;78.50;;;;;;5034875;28;20894;-89
2021/10/20 11:14:26;;;;;;;12.60;2.50;;;19.20;76.40;;;;;;5037374;28;20010;-89
2021/10/20 11:17:06;;;;;;;15.50;3.20;;;19.20;75.70;;;;;;5036956;28;20057;-88
2021/10/20 11:19:33;;;;;;;5.32;1.48;;;19.20;75.40;;;;;;5035836;28;20504;-89
2021/10/20 11:21:59;;;;;;;10.13;1.98;;;19.20;75.10;;;;;;5037618;28;20518;-89
2021/10/20 11:24:25;;;;;;;12.35;1.70;;;19.30;73.70;;;;;;5041196;28;20017;-89
2021/10/20 11:26:56;;;;;;;12.32;2.13;;;19.20;74.40;;;;;;5047579;28;20047;-89
2021/10/20 11:29:22;;;;;;;10.85;2.65;;;19.30;74.50;;;;;;5036042;28;20603;-87
2021/10/20 11:31:56;;;;;;;9.05;2.20;;;19.30;74.60;;;;;;5031792;28;20036;-88
2021/10/20 11:34:25;;;;;;;16.75;3.45;;;19.30;74.70;;;;;;5016976;28;20053;-88
2021/10/20 11:36:51;;;;;;;7.25;1.63;;;19.30;74.40;;;;;;5031953;28;20041;-88
2021/10/20 11:39:17;;;;;;;15.15;2.33;;;19.30;75.30;;;;;;5025649;28;20029;-87
2021/10/20 11:41:54;;;;;;;12.48;2.30;;;19.40;75.00;;;;;;5031003;28;20026;-87
2021/10/20 11:44:26;;;;;;;14.70;2.92;;;19.50;74.50;;;;;;5049568;28;20013;-78
2021/10/20 11:46:55;;;;;;;10.05;2.70;;;19.50;74.90;;;;;;5033092;28;20403;-77
2021/10/20 11:49:21;;;;;;;19.75;2.40;;;19.60;75.20;;;;;;5032980;28;20499;-77
2021/10/20 11:51:47;;;;;;;15.23;3.25;;;19.40;74.70;;;;;;5034706;28;20036;-77
2021/10/20 11:54:13;;;;;;;21.83;2.28;;;19.50;74.00;;;;;;5019007;28;20026;-83
2021/10/20 11:56:38;;;;;;;9.30;2.03;;;19.60;74.20;;;;;;5037608;28;20036;-83
2021/10/20 11:59:21;;;;;;;12.60;2.78;;;19.50;74.80;;;;;;5026687;28;20034;-79
2021/10/20 12:01:48;;;;;;;8.50;2.17;;;19.60;74.20;;;;;;5016669;28;20116;-80
2021/10/20 12:04:15;;;;;;;13.57;1.75;;;19.40;74.50;;;;;;5016390;28;20030;-85
2021/10/20 12:06:41;;;;;;;18.23;2.35;;;19.30;74.40;;;;;;5021265;28;20033;-80
2021/10/20 12:09:09;;;;;;;10.10;2.97;;;19.40;74.40;;;;;;5033519;28;20018;-87
2021/10/20 12:11:35;;;;;;;13.20;2.28;;;19.40;74.80;;;;;;5031980;28;20034;-86
2021/10/20 12:14:09;;;;;;;11.07;2.10;;;19.40;74.30;;;;;;5043873;28;20030;-83
2021/10/20 12:16:38;;;;;;;11.30;2.10;;;19.40;74.50;;;;;;5043358;28;20049;-80
2021/10/20 12:19:08;;;;;;;9.60;1.80;;;19.50;74.30;;;;;;5036662;28;20152;-80
2021/10/20 12:21:34;;;;;;;13.65;2.38;;;19.60;74.40;;;;;;5033621;28;20395;-80
2021/10/20 12:24:01;;;;;;;12.20;2.60;;;19.60;73.10;;;;;;5034650;28;20037;-80
2021/10/20 12:26:32;;;;;;;14.57;2.33;;;19.60;74.20;;;;;;5032396;28;20025;-80
2021/10/20 12:29:07;;;;;;;9.00;2.00;;;19.50;73.80;;;;;;5029190;28;20813;-79
2021/10/20 12:31:34;;;;;;;11.32;1.92;;;19.40;73.00;;;;;;5031035;28;20025;-80
2021/10/20 12:34:01;;;;;;;12.63;2.42;;;19.40;73.10;;;;;;5030692;28;20040;-80
2021/10/20 12:36:31;;;;;;;7.22;1.70;;;19.50;73.50;;;;;;5031897;28;20071;-79
2021/10/20 12:39:00;;;;;;;10.18;2.10;;;19.50;72.70;;;;;;5055795;28;20045;-80
2021/10/20 12:41:31;;;;;;;14.95;2.75;;;19.50;73.10;;;;;;5034681;28;20025;-80
2021/10/20 12:43:59;;;;;;;10.00;2.15;;;19.60;73.20;;;;;;5030171;28;20025;-81
2021/10/20 12:46:27;;;;;;;8.25;2.22;;;19.70;73.20;;;;;;5022933;28;20038;-80
2021/10/20 12:48:53;;;;;;;11.13;2.13;;;19.70;73.20;;;;;;5030065;28;20068;-79
2021/10/20 12:51:28;;;;;;;8.35;1.88;;;19.60;73.40;;;;;;5020740;28;20054;-79
2021/10/20 12:54:02;;;;;;;11.52;2.72;;;19.60;72.80;;;;;;5029014;28;20044;-81
2021/10/20 12:56:29;;;;;;;5.93;1.67;;;19.60;73.00;;;;;;5032763;28;20074;-79
2021/10/20 12:59:16;;;;;;;9.57;1.65;;;19.50;72.00;;;;;;5023316;28;20029;-85
2021/10/20 13:01:42;;;;;;;9.20;1.27;;;19.30;72.30;;;;;;5020960;28;20037;-79
2021/10/20 13:04:08;;;;;;;12.82;2.22;;;19.20;72.10;;;;;;5032945;28;20025;-79
2021/10/20 13:06:35;;;;;;;11.45;1.67;;;19.20;72.70;;;;;;5033649;28;20025;-79
2021/10/20 13:09:01;;;;;;;6.55;1.42;;;19.20;72.90;;;;;;5032919;28;20076;-79
2021/10/20 13:11:27;;;;;;;10.75;1.90;;;19.20;73.00;;;;;;5018766;28;20523;-79